createdAt,value
2022-08-17T00:01:52.299Z,85.13
2022-08-17T00:04:21.592Z,86.20
2022-08-17T00:06:49.663Z,85.42
2022-08-17T00:09:18.895Z,87.05
2022-08-17T00:12:42.133Z,87.49
2022-08-17T00:14:36.432Z,88.33
2022-08-17T00:17:04.056Z,88.92
2022-08-17T00:19:32.812Z,87.52
2022-08-17T00:22:30.824Z,86.71
2022-08-17T00:24:48.360Z,86.08
2022-08-17T00:27:15.613Z,84.33
2022-08-17T00:29:42.676Z,84.35
2022-08-17T00:33:12.227Z,86.37
2022-08-17T00:34:57.708Z,85.72
2022-08-17T00:37:24.563Z,85.04
2022-08-17T00:39:51.920Z,84.63
2022-08-17T00:42:19.620Z,85.62
2022-08-17T00:44:46.560Z,85.83
2022-08-17T00:47:13.464Z,85.52
2022-08-17T00:49:40.647Z,85.14
2022-08-17T00:52:16.296Z,85.67
2022-08-17T00:54:49.000Z,86.39
2022-08-17T00:57:23.048Z,85.49
2022-08-17T01:00:02.314Z,86.29
2022-08-17T01:02:42.028Z,86.33
2022-08-17T01:05:16.281Z,86.60
2022-08-17T01:07:49.071Z,85.80
2022-08-17T01:11:00.534Z,86.12
2022-08-17T01:13:09.580Z,86.19
2022-08-17T01:15:40.901Z,86.05
2022-08-17T01:18:10.738Z,89.91
2022-08-17T01:20:48.406Z,91.86
2022-08-17T01:23:20.701Z,94.22
2022-08-17T01:25:52.107Z,95.80
2022-08-17T01:28:52.510Z,94.65
2022-08-17T01:31:09.074Z,95.77
2022-08-17T01:33:37.281Z,98.05
2022-08-17T01:36:07.431Z,96.94
2022-08-17T01:38:37.072Z,96.99
2022-08-17T01:41:12.743Z,96.29
2022-08-17T01:43:51.197Z,95.54
2022-08-17T01:46:25.258Z,94.02
2022-08-17T01:48:53.980Z,94.02
2022-08-17T01:51:21.824Z,93.87
2022-08-17T01:53:54.390Z,94.53
2022-08-17T01:56:25.525Z,95.51
2022-08-17T01:58:53.455Z,95.38
2022-08-17T02:01:26.942Z,94.85
2022-08-17T02:04:00.817Z,93.34
2022-08-17T02:06:31.343Z,91.92
2022-08-17T02:09:16.937Z,91.07
2022-08-17T02:11:46.288Z,90.87
2022-08-17T02:14:14.153Z,90.49
2022-08-17T02:16:43.026Z,90.41
2022-08-17T02:19:14.793Z,90.88
2022-08-17T02:21:45.312Z,91.25
2022-08-17T02:24:58.279Z,91.13
2022-08-17T02:27:07.467Z,91.10
2022-08-17T02:29:34.402Z,91.67
2022-08-17T02:32:01.433Z,91.58
2022-08-17T02:34:29.115Z,92.61
2022-08-17T02:36:56.038Z,91.47
2022-08-17T02:39:24.259Z,92.01
2022-08-17T02:42:01.162Z,92.67
2022-08-17T02:44:38.873Z,93.66
2022-08-17T02:47:09.531Z,93.29
2022-08-17T02:49:37.668Z,95.06
2022-08-17T02:52:07.553Z,96.29
2022-08-17T02:54:39.953Z,95.54
2022-08-17T02:57:10.129Z,97.78
2022-08-17T02:59:37.219Z,96.78
2022-08-17T03:02:04.862Z,97.26
2022-08-17T03:04:35.110Z,98.51
2022-08-17T03:07:04.015Z,98.16
2022-08-17T03:09:31.099Z,97.82
2022-08-17T03:12:07.748Z,98.96
2022-08-17T03:14:41.279Z,98.30
2022-08-17T03:17:08.913Z,97.75
2022-08-17T03:19:35.980Z,97.51
2022-08-17T03:22:35.583Z,97.74
2022-08-17T03:24:55.672Z,96.35
2022-08-17T03:27:24.519Z,96.58
2022-08-17T03:29:51.386Z,95.78
2022-08-17T03:32:18.249Z,95.84
2022-08-17T03:34:45.263Z,95.17
2022-08-17T03:37:12.415Z,94.59
2022-08-17T03:39:39.310Z,95.75
2022-08-17T03:42:31.317Z,94.14
2022-08-17T03:45:03.333Z,94.70
2022-08-17T03:47:30.786Z,94.70
2022-08-17T03:49:57.659Z,94.49
2022-08-17T03:52:24.841Z,93.78
2022-08-17T03:54:51.706Z,92.89
2022-08-17T03:57:18.811Z,92.68
2022-08-17T03:59:45.954Z,93.46
2022-08-17T04:02:21.445Z,94.57
2022-08-17T04:04:48.865Z,93.96
2022-08-17T04:07:15.751Z,95.67
2022-08-17T04:09:42.744Z,95.95
2022-08-17T04:12:11.162Z,96.08
2022-08-17T04:14:51.463Z,96.29
2022-08-17T04:17:23.494Z,96.41
2022-08-17T04:19:50.449Z,95.05
2022-08-17T04:22:31.377Z,97.61
2022-08-17T04:25:07.746Z,97.23
2022-08-17T04:27:35.326Z,97.32
2022-08-17T04:30:02.722Z,94.31
2022-08-17T04:33:04.429Z,95.11
2022-08-17T04:35:22.467Z,94.39
2022-08-17T04:37:50.690Z,93.33
2022-08-17T04:40:19.785Z,93.35
2022-08-17T04:43:02.117Z,94.21
2022-08-17T04:45:31.918Z,93.12
2022-08-17T04:48:01.076Z,92.65
2022-08-17T04:50:28.361Z,93.95
2022-08-17T04:52:57.227Z,95.60
2022-08-17T04:55:24.308Z,97.42
2022-08-17T04:57:51.464Z,96.78
2022-08-17T05:00:18.631Z,96.11
2022-08-17T05:02:50.339Z,93.74
2022-08-17T05:05:21.638Z,93.93
2022-08-17T05:07:52.066Z,91.65
2022-08-17T05:10:18.935Z,86.27
2022-08-17T05:12:45.887Z,82.83
2022-08-17T05:15:14.357Z,79.43
2022-08-17T05:17:41.369Z,78.32
2022-08-17T05:20:09.874Z,76.19
2022-08-17T05:22:48.658Z,73.23
2022-08-17T05:25:19.010Z,70.93
2022-08-17T05:27:52.872Z,67.87
2022-08-17T05:30:20.956Z,64.71
2022-08-17T05:32:54.307Z,62.08
2022-08-17T05:35:23.053Z,60.56
2022-08-17T05:37:52.277Z,58.13
2022-08-17T05:40:22.004Z,55.88
2022-08-17T05:42:50.351Z,55.89
2022-08-17T05:45:23.629Z,55.47
2022-08-17T05:48:08.835Z,56.06
2022-08-17T05:50:56.600Z,53.63
2022-08-17T05:53:40.554Z,51.08
2022-08-17T05:56:29.958Z,50.74
2022-08-17T05:59:14.712Z,49.89
2022-08-17T06:01:52.677Z,55.63
2022-08-17T06:04:37.228Z,58.47
2022-08-17T06:07:17.173Z,57.76
2022-08-17T06:10:00.732Z,54.16
2022-08-17T06:12:47.562Z,52.07
2022-08-17T06:15:30.512Z,50.08
2022-08-17T06:18:04.897Z,48.23
2022-08-17T06:20:46.262Z,46.36
2022-08-17T06:23:21.122Z,46.37
2022-08-17T06:25:58.134Z,45.89
2022-08-17T06:28:36.170Z,45.78
2022-08-17T06:31:12.184Z,45.59
2022-08-17T06:33:41.186Z,45.74
2022-08-17T06:36:20.297Z,47.27
2022-08-17T06:39:03.043Z,46.63
2022-08-17T06:41:44.813Z,45.68
2022-08-17T06:44:50.019Z,44.61
2022-08-17T06:47:12.279Z,43.33
2022-08-17T06:49:55.095Z,42.32
2022-08-17T06:52:46.841Z,44.87
2022-08-17T06:55:23.647Z,50.66
2022-08-17T06:57:57.779Z,51.23
2022-08-17T07:00:31.970Z,52.20
2022-08-17T07:03:10.028Z,54.72
2022-08-17T07:05:44.046Z,56.65
2022-08-17T07:08:19.766Z,57.24
2022-08-17T07:10:53.076Z,55.67
2022-08-17T07:13:41.763Z,51.43
2022-08-17T07:16:19.942Z,47.25
2022-08-17T07:18:50.602Z,45.67
2022-08-17T07:21:33.516Z,44.27
2022-08-17T07:24:32.058Z,42.11
2022-08-17T07:27:10.488Z,42.25
2022-08-17T07:29:50.264Z,41.20
2022-08-17T07:32:24.598Z,39.20
2022-08-17T07:35:11.464Z,34.97
2022-08-17T07:37:40.809Z,36.41
2022-08-17T07:40:20.117Z,35.90
2022-08-17T07:43:22.249Z,35.99
2022-08-17T07:45:59.415Z,37.44
2022-08-17T07:48:27.309Z,36.67
2022-08-17T07:50:54.220Z,36.26
2022-08-17T07:53:25.827Z,36.26
2022-08-17T07:55:54.239Z,38.18
2022-08-17T07:58:24.118Z,38.47
2022-08-17T08:01:09.790Z,39.38
2022-08-17T08:03:44.006Z,39.22
2022-08-17T08:06:22.233Z,38.65
2022-08-17T08:08:53.454Z,37.44
2022-08-17T08:11:33.353Z,35.71
2022-08-17T08:14:28.653Z,34.80
2022-08-17T08:17:01.925Z,33.39
2022-08-17T08:19:30.658Z,32.48
2022-08-17T08:22:04.853Z,31.93
2022-08-17T08:25:02.759Z,32.24
2022-08-17T08:27:49.790Z,34.55
2022-08-17T08:30:20.263Z,35.45
2022-08-17T08:33:16.570Z,35.85
2022-08-17T08:35:50.801Z,35.76
2022-08-17T08:38:33.405Z,38.19
2022-08-17T08:41:21.751Z,39.13
2022-08-17T08:44:07.766Z,39.32
2022-08-17T08:46:49.088Z,39.76
2022-08-17T08:50:03.491Z,41.04
2022-08-17T08:52:54.203Z,41.68
2022-08-17T08:55:42.034Z,42.19
2022-08-17T08:58:31.870Z,42.98
2022-08-17T09:01:18.149Z,43.88
2022-08-17T09:04:19.929Z,43.77
2022-08-17T09:07:06.411Z,44.26
2022-08-17T09:09:51.242Z,44.25
2022-08-17T09:12:40.386Z,45.17
2022-08-17T09:15:16.375Z,45.77
2022-08-17T09:18:08.561Z,47.29
2022-08-17T09:20:50.386Z,46.84
2022-08-17T09:23:32.856Z,46.95
2022-08-17T09:26:10.440Z,47.17
2022-08-17T09:28:42.295Z,47.05
2022-08-17T09:31:18.844Z,47.53
2022-08-17T09:33:48.983Z,47.57
2022-08-17T09:36:26.652Z,47.96
2022-08-17T09:39:06.182Z,47.25
2022-08-17T09:41:48.685Z,46.69
2022-08-17T09:44:26.623Z,46.59
2022-08-17T09:47:05.105Z,46.86
2022-08-17T09:49:44.124Z,48.14
2022-08-17T09:52:20.727Z,50.74
2022-08-17T09:54:52.168Z,51.22
2022-08-17T09:57:42.261Z,51.80
2022-08-17T10:00:22.578Z,51.52
2022-08-17T10:03:21.115Z,51.35
2022-08-17T10:05:59.791Z,52.20
2022-08-17T10:08:41.894Z,53.43
2022-08-17T10:11:33.507Z,55.22
2022-08-17T10:14:37.653Z,55.40
2022-08-17T10:17:14.447Z,55.69
2022-08-17T10:19:55.739Z,56.12
2022-08-17T10:22:34.629Z,56.31
2022-08-17T10:25:22.524Z,56.81
2022-08-17T10:27:59.580Z,56.94
2022-08-17T10:30:33.180Z,58.04
2022-08-17T10:33:05.962Z,61.45
2022-08-17T10:35:46.839Z,61.97
2022-08-17T10:38:41.031Z,60.66
2022-08-17T10:41:26.879Z,59.55
2022-08-17T10:44:38.975Z,59.27
2022-08-17T10:47:08.286Z,58.61
2022-08-17T10:49:37.743Z,56.56
2022-08-17T10:52:47.012Z,57.25
2022-08-17T10:55:17.774Z,57.29
2022-08-17T10:57:48.948Z,58.92
2022-08-17T11:01:05.925Z,58.68
2022-08-17T11:03:33.558Z,59.67
2022-08-17T11:06:17.815Z,59.57
2022-08-17T11:09:26.787Z,60.51
2022-08-17T11:12:14.576Z,59.67
2022-08-17T11:15:24.574Z,60.18
2022-08-17T11:18:15.387Z,59.73
2022-08-17T11:21:24.322Z,56.51
2022-08-17T11:24:18.460Z,61.44
2022-08-17T11:27:03.337Z,65.58
2022-08-17T11:29:37.890Z,70.85
2022-08-17T11:32:11.226Z,72.15
2022-08-17T11:34:42.900Z,69.41
2022-08-17T11:37:50.626Z,72.81
2022-08-17T11:40:48.735Z,70.61
2022-08-17T11:43:49.983Z,71.72
2022-08-17T11:46:30.111Z,69.63
2022-08-17T11:49:14.273Z,72.12
2022-08-17T11:52:14.146Z,70.67
2022-08-17T11:54:48.036Z,72.04
2022-08-17T11:58:02.339Z,70.32
2022-08-17T12:00:55.074Z,72.57
2022-08-17T12:03:54.130Z,70.46
2022-08-17T12:06:46.483Z,71.14
2022-08-17T12:09:20.898Z,71.03
2022-08-17T12:12:13.305Z,70.94
2022-08-17T12:15:12.185Z,72.01
2022-08-17T12:17:42.840Z,70.08
2022-08-17T12:20:28.015Z,66.52
2022-08-17T12:23:08.117Z,66.76
2022-08-17T12:25:55.694Z,68.68
2022-08-17T12:28:28.782Z,68.51
2022-08-17T12:31:06.578Z,69.03
2022-08-17T12:33:42.102Z,66.65
2022-08-17T12:36:15.554Z,65.07
2022-08-17T12:38:53.030Z,66.94
2022-08-17T12:41:36.275Z,67.28
2022-08-17T12:44:12.187Z,67.31
2022-08-17T12:46:52.270Z,67.25
2022-08-17T12:49:31.891Z,67.08
2022-08-17T12:52:15.526Z,67.61
2022-08-17T12:54:55.479Z,66.78
2022-08-17T12:57:29.155Z,69.31
2022-08-17T13:00:00.239Z,68.29
2022-08-17T13:02:41.257Z,66.94
2022-08-17T13:05:21.774Z,69.41
2022-08-17T13:07:49.314Z,68.54
2022-08-17T13:10:27.390Z,65.76
2022-08-17T13:12:58.953Z,67.64
2022-08-17T13:15:33.631Z,69.17
2022-08-17T13:18:07.679Z,66.66
2022-08-17T13:20:35.982Z,65.89
2022-08-17T13:23:11.878Z,65.72
2022-08-17T13:25:40.391Z,66.55
2022-08-17T13:28:18.876Z,65.80
2022-08-17T13:31:23.375Z,65.13
2022-08-17T13:33:50.231Z,62.92
2022-08-17T13:36:28.048Z,64.21
2022-08-17T13:39:11.919Z,64.88
2022-08-17T13:41:39.236Z,65.16
2022-08-17T13:44:33.901Z,65.06
2022-08-17T13:47:02.651Z,64.98
2022-08-17T13:49:48.260Z,64.44
2022-08-17T13:52:38.069Z,63.45
2022-08-17T13:55:15.640Z,63.29
2022-08-17T13:57:48.146Z,63.77
2022-08-17T14:00:28.161Z,62.05
2022-08-17T14:02:55.250Z,59.20
2022-08-17T14:05:22.142Z,57.44
2022-08-17T14:07:57.308Z,58.69
2022-08-17T14:10:25.896Z,58.90
2022-08-17T14:12:54.116Z,57.10
2022-08-17T14:15:54.644Z,55.66
2022-08-17T14:18:12.529Z,54.67
2022-08-17T14:20:39.860Z,54.52
2022-08-17T14:23:06.855Z,54.68
2022-08-17T14:25:34.164Z,53.50
2022-08-17T14:28:01.937Z,53.02
2022-08-17T14:30:30.408Z,53.58
2022-08-17T14:32:58.864Z,53.47
2022-08-17T14:35:26.142Z,53.31
2022-08-17T14:37:53.657Z,54.16
2022-08-17T14:40:22.192Z,54.14
2022-08-17T14:42:49.172Z,53.69
2022-08-17T14:45:30.487Z,54.43
2022-08-17T14:48:03.305Z,53.65
2022-08-17T14:50:30.317Z,53.32
2022-08-17T14:52:59.134Z,52.44
2022-08-17T14:55:26.796Z,52.18
2022-08-17T14:57:53.700Z,52.00
2022-08-17T15:00:21.466Z,52.31
2022-08-17T15:02:52.817Z,52.65
2022-08-17T15:05:24.871Z,52.52
2022-08-17T15:07:53.066Z,52.76
2022-08-17T15:10:21.415Z,53.38
2022-08-17T15:12:48.554Z,53.13
2022-08-17T15:15:17.770Z,53.13
2022-08-17T15:17:54.853Z,53.50
2022-08-17T15:20:28.407Z,52.96
2022-08-17T15:22:56.988Z,52.78
2022-08-17T15:25:27.058Z,52.97
2022-08-17T15:27:53.959Z,52.27
2022-08-17T15:30:22.064Z,53.21
2022-08-17T15:32:54.284Z,52.67
2022-08-17T15:35:28.571Z,53.68
2022-08-17T15:37:58.538Z,53.63
2022-08-17T15:40:25.433Z,53.66
2022-08-17T15:42:52.419Z,53.92
2022-08-17T15:45:24.597Z,53.63
2022-08-17T15:47:51.565Z,52.85
2022-08-17T15:50:18.713Z,52.80
2022-08-17T15:52:47.002Z,54.31
2022-08-17T15:55:15.208Z,54.54
2022-08-17T15:57:42.291Z,54.98
2022-08-17T16:00:11.039Z,55.89
2022-08-17T16:03:44.450Z,56.02
2022-08-17T16:05:30.127Z,55.56
2022-08-17T16:07:59.624Z,56.12
2022-08-17T16:10:35.103Z,55.18
2022-08-17T16:13:04.342Z,55.40
2022-08-17T16:15:31.985Z,55.05
2022-08-17T16:17:59.544Z,55.33
2022-08-17T16:20:26.943Z,55.64
2022-08-17T16:22:55.176Z,56.27
2022-08-17T16:25:38.450Z,55.37
2022-08-17T16:28:16.145Z,54.80
2022-08-17T16:35:13.293Z,55.70
2022-08-17T16:37:40.196Z,55.83
2022-08-17T16:40:13.465Z,56.32
2022-08-17T16:42:42.607Z,57.10
2022-08-17T16:45:14.181Z,56.46
2022-08-17T16:47:46.947Z,56.57
2022-08-17T16:50:16.774Z,56.80
2022-08-17T16:52:45.043Z,55.97
2022-08-17T16:55:13.576Z,56.27
2022-08-17T16:57:47.311Z,56.13
2022-08-17T17:00:20.417Z,55.75
2022-08-17T17:02:48.633Z,57.00
2022-08-17T17:05:57.704Z,57.43
2022-08-17T17:08:33.016Z,57.78
2022-08-17T17:11:10.816Z,57.38
2022-08-17T17:13:46.403Z,57.29
2022-08-17T17:16:24.408Z,58.18
2022-08-17T17:19:10.185Z,59.50
2022-08-17T17:21:46.932Z,59.42
2022-08-17T17:24:23.583Z,58.53
2022-08-17T17:27:20.971Z,58.12
2022-08-17T17:30:07.779Z,58.24
2022-08-17T17:32:40.592Z,59.59
2022-08-17T17:35:16.259Z,59.46
2022-08-17T17:37:46.263Z,59.88
2022-08-17T17:40:21.299Z,59.59
2022-08-17T17:42:51.229Z,60.52
2022-08-17T17:45:26.476Z,61.22
2022-08-17T17:47:53.738Z,68.50
2022-08-17T17:50:38.716Z,68.64
2022-08-17T17:53:18.922Z,68.59
2022-08-17T17:56:19.638Z,66.58
2022-08-17T17:59:12.860Z,66.00
2022-08-17T18:01:55.294Z,68.62
2022-08-17T18:04:32.668Z,68.54
2022-08-17T18:07:17.489Z,71.08
2022-08-17T18:10:03.859Z,69.55
2022-08-17T18:12:43.322Z,71.91
2022-08-17T18:15:35.595Z,72.97
2022-08-17T18:18:34.845Z,74.15
2022-08-17T18:21:08.199Z,75.46
2022-08-17T18:23:35.150Z,73.65
2022-08-17T18:26:02.386Z,75.66
2022-08-17T18:28:36.254Z,75.32
2022-08-17T18:31:15.380Z,78.08
2022-08-17T18:33:48.199Z,79.59
2022-08-17T18:36:28.421Z,76.55
2022-08-17T18:39:13.928Z,77.26
2022-08-17T18:41:43.076Z,77.04
2022-08-17T18:44:24.091Z,77.67
2022-08-17T18:47:12.073Z,80.51
2022-08-17T18:49:41.723Z,79.97
2022-08-17T18:52:15.245Z,79.03
2022-08-17T18:55:05.079Z,78.91
2022-08-17T18:57:35.590Z,79.28
2022-08-17T19:00:13.395Z,78.35
2022-08-17T19:02:57.240Z,80.36
2022-08-17T19:05:36.757Z,81.46
2022-08-17T19:08:23.311Z,82.34
2022-08-17T19:10:55.381Z,83.69
2022-08-17T19:13:31.126Z,83.74
2022-08-17T19:16:14.104Z,83.89
2022-08-17T19:18:48.707Z,80.19
2022-08-17T19:21:23.658Z,80.83
2022-08-17T19:23:59.226Z,80.91
2022-08-17T19:26:54.502Z,80.24
2022-08-17T19:29:34.260Z,85.22
2022-08-17T19:32:02.761Z,86.88
2022-08-17T19:34:34.701Z,88.02
2022-08-17T19:37:12.404Z,89.00
2022-08-17T19:39:53.318Z,89.48
2022-08-17T19:42:35.444Z,89.34
2022-08-17T19:45:15.666Z,89.56
2022-08-17T19:47:57.174Z,88.89
2022-08-17T19:50:36.936Z,89.54
2022-08-17T19:53:19.110Z,88.92
2022-08-17T19:55:59.725Z,86.61
2022-08-17T19:58:47.714Z,87.18
2022-08-17T20:01:29.837Z,86.99
2022-08-17T20:04:11.039Z,87.64
2022-08-17T20:06:43.742Z,86.75
2022-08-17T20:09:29.626Z,89.36
2022-08-17T20:12:08.870Z,89.23
2022-08-17T20:14:41.824Z,89.43
2022-08-17T20:17:25.804Z,89.81
2022-08-17T20:20:08.745Z,91.07
2022-08-17T20:22:54.766Z,89.09
2022-08-17T20:25:35.706Z,90.41
2022-08-17T20:28:18.683Z,92.00
2022-08-17T20:30:45.946Z,92.01
2022-08-17T20:33:25.814Z,90.94
2022-08-17T20:36:16.379Z,91.57
2022-08-17T20:38:49.018Z,90.79
2022-08-17T20:41:19.865Z,90.20
2022-08-17T20:44:04.161Z,89.71
2022-08-17T20:46:55.739Z,89.86
2022-08-17T20:49:45.534Z,89.92
2022-08-17T20:52:15.087Z,90.17
2022-08-17T20:54:48.244Z,94.16
2022-08-17T20:57:47.463Z,96.19
2022-08-17T21:00:43.662Z,95.73
2022-08-17T21:03:51.862Z,96.34
2022-08-17T21:06:25.037Z,97.19
2022-08-17T21:08:57.718Z,96.44
2022-08-17T21:11:58.225Z,96.13
2022-08-17T21:14:57.747Z,95.88
2022-08-17T21:17:41.397Z,95.59
2022-08-17T21:20:33.626Z,97.21
2022-08-17T21:23:35.339Z,97.46
2022-08-17T21:26:30.171Z,96.65
2022-08-17T21:29:29.861Z,95.93
2022-08-17T21:32:19.299Z,95.71
2022-08-17T21:35:24.951Z,95.61
2022-08-17T21:38:01.318Z,95.31
2022-08-17T21:40:32.508Z,95.47
2022-08-17T21:43:17.311Z,95.52
2022-08-17T21:45:57.006Z,95.39
2022-08-17T21:48:28.111Z,95.88
2022-08-17T21:51:08.140Z,95.47
2022-08-17T21:53:44.200Z,95.67
2022-08-17T21:56:22.019Z,95.59
2022-08-17T21:58:59.613Z,95.76
2022-08-17T22:01:30.657Z,94.54
2022-08-17T22:04:05.012Z,93.64
2022-08-17T22:06:38.696Z,92.52
2022-08-17T22:09:14.431Z,92.75
2022-08-17T22:11:59.676Z,92.23
2022-08-17T22:14:52.108Z,92.00
2022-08-17T22:17:22.237Z,91.04
2022-08-17T22:19:54.955Z,91.25
2022-08-17T22:22:34.131Z,90.76
2022-08-17T22:25:06.321Z,90.45
2022-08-17T22:27:55.177Z,91.55
2022-08-17T22:30:34.434Z,93.27
2022-08-17T22:33:39.490Z,96.32
2022-08-17T22:36:26.853Z,99.04
2022-08-17T22:38:59.166Z,100.00
2022-08-17T22:41:52.631Z,100.00
2022-08-17T22:44:28.372Z,98.73
2022-08-17T22:47:01.871Z,97.58
2022-08-17T22:49:35.222Z,96.07
2022-08-17T22:52:16.666Z,95.25
2022-08-17T22:54:48.216Z,95.22
2022-08-17T22:57:18.661Z,94.39
2022-08-17T22:59:50.452Z,92.71
2022-08-17T23:02:25.932Z,90.65
2022-08-17T23:05:19.787Z,89.02
2022-08-17T23:07:50.906Z,89.36
2022-08-17T23:10:19.782Z,90.61
2022-08-17T23:12:46.700Z,90.15
2022-08-17T23:15:18.023Z,90.53
2022-08-17T23:17:45.891Z,90.91
2022-08-17T23:20:16.235Z,90.76
2022-08-17T23:22:52.799Z,90.51
2022-08-17T23:25:28.156Z,90.41
2022-08-17T23:27:56.880Z,90.62
2022-08-17T23:30:23.986Z,90.82
2022-08-17T23:32:53.863Z,90.08
2022-08-17T23:35:39.996Z,87.69
2022-08-17T23:38:11.480Z,86.00
2022-08-17T23:40:40.457Z,85.80
2022-08-17T23:43:15.380Z,86.11
2022-08-17T23:45:53.174Z,85.94
2022-08-17T23:48:36.248Z,84.96
2022-08-17T23:51:11.122Z,83.87
2022-08-17T23:53:44.186Z,83.52
2022-08-17T23:56:11.780Z,82.36
2022-08-17T23:58:40.606Z,79.97
